15 de agosto de 2022

Hora Código Clima Temp. Visibilidade Tecto Vento METAR/SPECI
23:30
V
17 °C 10 km+ - Var 000° 0 kt METAR LFSL 152130Z AUTO 00000KT CAVOK 17/15 Q1010
23:00
V
17 °C 10 km+ - Var 000° 0 kt METAR LFSL 152100Z AUTO 00000KT CAVOK 17/15 Q1010
22:30
V
18 °C 10 km+ - Var 000° 0 kt METAR LFSL 152030Z AUTO 00000KT CAVOK 18/15 Q1010
22:00
V
19 °C 10 km+ - Var 000° 0 kt METAR LFSL 152000Z AUTO 00000KT CAVOK 19/15 Q1010 NOSIG
21:30
V
21 °C 10 km+ - Var 000° 0 kt METAR LFSL 151930Z AUTO 00000KT CAVOK 21/15 Q1010 NOSIG
21:00
V
22 °C 10 km+ - 230° 230° 2 kt METAR LFSL 151900Z AUTO 23002KT CAVOK 22/16 Q1009 NOSIG
20:30
V
25 °C 10 km+ - Var Var 2 kt METAR LFSL 151830Z AUTO VRB02KT CAVOK 25/15 Q1009 NOSIG
20:00
V
25 °C 10 km+ - 230° 230° 3 kt METAR LFSL 151800Z AUTO 23003KT 180V280 CAVOK 25/14 Q1009 NOSIG
19:30
V
26 °C 10 km+ - Var Var 3 kt METAR LFSL 151730Z AUTO VRB03KT CAVOK 26/15 Q1009 NOSIG
19:00
V
26 °C 10 km+ - 240° 240° 3 kt METAR LFSL 151700Z AUTO 24003KT 120V290 CAVOK 26/15 Q1009 NOSIG
18:30
V
27 °C 10 km+ 4.800 ft Var Var 4 kt METAR LFSL 151630Z AUTO VRB04KT 9999 BKN048 BKN076 27/14 Q1009 NOSIG
18:00
V
26 °C 10 km+ 6.200 ft Var Var 3 kt METAR LFSL 151600Z AUTO VRB03KT 9999 SCT046 BKN062 BKN076 26/15 Q1009 NOSIG
17:30
V
26 °C 10 km+ - Var Var 2 kt METAR LFSL 151530Z AUTO VRB02KT CAVOK 26/15 Q1009 NOSIG
17:00
V
25 °C 10 km+ 7.600 ft 290° 290° 3 kt METAR LFSL 151500Z AUTO 29003KT 210V360 9999 SCT043 SCT062 OVC076 25/15 Q1010 NOSIG
16:30
V
27 °C 10 km+ 8.000 ft Var Var 3 kt METAR LFSL 151430Z AUTO VRB03KT 9999 FEW042 SCT066 BKN080 27/15 Q1010 NOSIG
16:00
V
25 °C 10 km+ 4.100 ft 240° 240° 5 kt METAR LFSL 151400Z AUTO 24005KT 170V310 9999 BKN041 BKN072 25/16 Q1010 NOSIG
15:30
V
25 °C 10 km+ 3.800 ft Var Var 5 kt METAR LFSL 151330Z AUTO VRB05KT 9999 BKN038 BKN076 25/16 Q1010 NOSIG
15:00
V
26 °C 10 km+ 3.800 ft Var Var 5 kt METAR LFSL 151300Z AUTO VRB05KT 9999 BKN038 BKN050 OVC066 26/15 Q1010 NOSIG
14:30
V
24 °C 10 km+ 3.300 ft 300° 300° 7 kt METAR LFSL 151230Z AUTO 30007KT 240V320 9999 BKN033/// BKN040/// BKN056/// //////TCU 24/16 Q1011 BECMG NSC
14:00
V
23 °C 10 km+ 5.600 ft 310° 310° 5 kt METAR LFSL 151200Z AUTO 31005KT 270V350 9999 SCT033 SCT045 BKN056 23/16 Q1011 NOSIG
13:30
V
23 °C 10 km+ 4.400 ft Var Var 4 kt METAR LFSL 151130Z AUTO VRB04KT 9999 FEW023 SCT037 BKN044 23/16 Q1011 NOSIG
13:00
V
23 °C 10 km+ 6.600 ft Var Var 6 kt METAR LFSL 151100Z AUTO VRB06KT 9999 FEW023 SCT028 BKN066 23/16 Q1011 TEMPO 4000 -RA BKN005
12:30
M
22 °C 10 km+ 1.900 ft Var Var 4 kt METAR LFSL 151030Z AUTO VRB04KT 9999 BKN019 BKN028 BKN052 22/16 Q1011 TEMPO 4000 -RA BKN005
12:00
M
21 °C 10 km+ 1.700 ft 220° 220° 4 kt METAR LFSL 151000Z AUTO 22004KT 160V300 9999 BKN017 BKN040 OVC052 21/16 Q1011 TEMPO 4000 -RA BKN005
11:30
V
20 °C 10 km+ 4.000 ft 210° 210° 5 kt METAR LFSL 150930Z AUTO 21005KT 160V280 9999 SCT016 OVC040 20/16 Q1011 TEMPO 4000 -RA BKN005
11:00
M
20 °C 10 km+ 1.700 ft 200° 200° 5 kt METAR LFSL 150900Z AUTO 20005KT 120V260 9999 BKN017 OVC037 20/16 Q1011 TEMPO 4000 -RA BKN005
10:30
M
20 °C 10 km+ 1.300 ft 190° 190° 5 kt METAR LFSL 150830Z AUTO 19005KT 150V250 9999 BKN013 20/16 Q1011 TEMPO 4000 -RA BKN005
10:00
I
19 °C 10 km+ 900 ft 190° 190° 5 kt METAR LFSL 150800Z AUTO 19005KT 160V220 9999 BKN009 19/17 Q1011 TEMPO 4000 -RA
09:30
I
18 °C 10 km+ 500 ft Var Var 3 kt METAR LFSL 150730Z AUTO VRB03KT 9999 BKN005 BKN009 BKN040 18/17 Q1011 TEMPO 4000 -RA
09:00
L
17 °C 10 km+ 400 ft 180° 180° 3 kt METAR LFSL 150700Z AUTO 18003KT 150V220 9999 OVC004 17/16 Q1011 BECMG BKN025
08:30
I
16 °C 9 km 600 ft Var Var 3 kt METAR LFSL 150630Z AUTO VRB03KT 9000 BKN006 OVC034 16/16 Q1011 BECMG BKN025
08:00
V
16 °C 9 km 3.500 ft 160° 160° 3 kt METAR LFSL 150600Z AUTO 16003KT 130V200 9000 SCT003 BKN035 OVC054 16/15 Q1011 NOSIG
07:30
V
15 °C 9 km - 190° 190° 4 kt METAR LFSL 150530Z AUTO 19004KT 9000 NSC 15/15 Q1011 NOSIG
07:00
V
15 °C 10 km+ 5.200 ft 180° 180° 3 kt METAR LFSL 150500Z AUTO 18003KT 150V210 9999 FEW044 OVC052 15/15 Q1010 NOSIG
06:30
V
15 °C 10 km+ 4.700 ft Var Var 2 kt METAR LFSL 150430Z AUTO VRB02KT 9999 FEW040 BKN047 15/15 Q1011 NOSIG
06:00
V
15 °C 9 km - 190° 190° 3 kt METAR LFSL 150400Z AUTO 19003KT 9000 NSC 15/15 Q1011 TEMPO 4000 BR
05:30
V
16 °C 8 km 16.000 ft 180° 180° 3 kt METAR LFSL 150330Z AUTO 18003KT 8000 SCT011 BKN160 BKN190 16/15 Q1011 TEMPO 4000 BR
05:00
V
15 °C 8 km - Var Var 2 kt METAR LFSL 150300Z AUTO VRB02KT 8000 NSC 15/15 Q1011
04:30
M
16 °C 7 km - Var Var 2 kt METAR LFSL 150230Z AUTO VRB02KT 7000 NSC 16/15 Q1011
04:00
L
16 °C 9 km - 200° 200° 2 kt METAR LFSL 150200Z AUTO 20002KT 9000 VV/// 16/15 Q1011
03:30
L
15 °C 6 km - Var 000° 0 kt METAR LFSL 150130Z AUTO 00000KT 6000 VV/// 15/15 Q1011
03:00
V
16 °C 10 km+ - Var Var 2 kt METAR LFSL 150100Z AUTO VRB02KT CAVOK 16/15 Q1011
02:30
V
16 °C 10 km+ - 180° 180° 2 kt METAR LFSL 150030Z AUTO 18002KT CAVOK 16/16 Q1011
02:00
V
16 °C 10 km+ - Var Var 2 kt METAR LFSL 150000Z AUTO VRB02KT CAVOK 16/15 Q1011
01:30
V
17 °C 10 km+ - Var 000° 0 kt METAR LFSL 142330Z AUTO 00000KT CAVOK 17/16 Q1011
01:00
V
18 °C 10 km+ - 210° 210° 2 kt METAR LFSL 142300Z AUTO 21002KT CAVOK 18/16 Q1011
00:30
V
18 °C 10 km+ 7.800 ft 200° 200° 2 kt METAR LFSL 142230Z AUTO 20002KT 9999 FEW028/// BKN078/// //////TCU 18/17 Q1011
00:00
V
19 °C 10 km+ - Var Var 3 kt METAR LFSL 142200Z AUTO VRB03KT CAVOK 19/17 Q1011

14 de agosto de 2022

Hora Código Clima Temp. Visibilidade Tecto Vento METAR/SPECI
23:30
V
20 °C 10 km+ 6.400 ft Var Var 2 kt METAR LFSL 142130Z AUTO VRB02KT 9999 FEW034 BKN064 20/17 Q1011
23:00
V
20 °C 10 km+ 6.200 ft Var Var 2 kt METAR LFSL 142100Z AUTO VRB02KT 9999 FEW045 OVC062 20/18 Q1011
22:30
V
20 °C 10 km+ 6.600 ft 200° 200° 2 kt METAR LFSL 142030Z AUTO 20002KT 9999 FEW038 OVC066 20/18 Q1011
22:00
V
20 °C 10 km+ 6.600 ft 190° 190° 2 kt METAR LFSL 142000Z AUTO 19002KT 9999 FEW036 OVC066 20/18 Q1011 NOSIG
21:30
V
21 °C 10 km+ 4.600 ft Var Var 1 kt METAR LFSL 141930Z AUTO VRB01KT 9999 FEW037 BKN046 OVC068 21/18 Q1011 NOSIG
21:00
V
21 °C 10 km+ 4.500 ft Var Var 2 kt METAR LFSL 141900Z AUTO VRB02KT 9999 FEW024 SCT031 BKN045 21/17 Q1011 NOSIG
20:30
V
22 °C 10 km+ 3.400 ft Var Var 2 kt METAR LFSL 141830Z AUTO VRB02KT 9999 SCT027 BKN034 BKN060 22/17 Q1010 NOSIG
20:00
M
22 °C 10 km+ 2.800 ft 280° 280° 4 kt METAR LFSL 141800Z AUTO 28004KT 240V330 9999 BKN028 BKN033 OVC044 22/16 Q1011 NOSIG
19:30
M
23 °C 10 km+ 2.900 ft 280° 280° 4 kt METAR LFSL 141730Z AUTO 28004KT 150V320 9999 BKN029 BKN034 23/17 Q1011 NOSIG
19:00
V
23 °C 10 km+ - 310° 310° 5 kt METAR LFSL 141700Z AUTO 31005KT 230V340 9999 FEW026 23/17 Q1010 NOSIG
18:30
V
23 °C 10 km+ - 290° 290° 5 kt METAR LFSL 141630Z AUTO 29005KT 210V330 CAVOK 23/17 Q1011 NOSIG
18:00
V
23 °C 10 km+ - 290° 290° 7 kt METAR LFSL 141600Z AUTO 29007KT 230V330 CAVOK 23/16 Q1011 TEMPO 4000 -SHRA BKN015TCU
17:30
V
23 °C 10 km+ - 270° 270° 5 kt METAR LFSL 141530Z AUTO 27005KT 180V330 CAVOK 23/17 Q1011 NOSIG
17:00
V
22 °C 10 km+ - 230° 230° 4 kt METAR LFSL 141500Z AUTO 23004KT 150V310 CAVOK 22/18 Q1011 TEMPO 4000 -SHRA BKN010 BKN015TCU
16:30
M
21 °C 10 km+ 2.300 ft Var Var 3 kt METAR LFSL 141430Z AUTO VRB03KT 9999 SCT011 BKN023 BKN120 21/19 Q1011 TEMPO 4000 -SHRA BKN010 BKN015TCU
16:00
V
19 °C 10 km+ 11.000 ft Var Var 2 kt METAR LFSL 141400Z AUTO VRB02KT 9999 SCT016/// SCT026/// OVC110/// //////TCU 19/17 Q1012 TEMPO 4000 -SHRA BKN010 BKN015TCU
15:30
V
19 °C 10 km+ - Var Var 3 kt METAR LFSL 141330Z AUTO VRB03KT 9999 -RA ///CB 19/16 Q1011 TEMPO 4000 -SHRA BKN010 BKN015TCU
15:00
V
19 °C 10 km+ 10.000 ft 230° 230° 4 kt METAR LFSL 141300Z AUTO 23004KT 170V300 9999 -RA FEW037/// BKN100/// OVC130/// //////CB 19/17 Q1012 TEMPO VRB15G25KT 4000 -SHRA BKN010 BKN015TCU
14:30
V
19 °C 10 km+ - 220° 220° 4 kt METAR LFSL 141230Z AUTO 22004KT 160V270 9999 FEW032/// SCT120/// ///CB 19/17 Q1012 TEMPO VRB15G25KT 4000 -SHRA BKN010 BKN015TCU
14:00
V
18 °C 10 km+ 3.200 ft Var Var 2 kt METAR LFSL 141200Z AUTO VRB02KT 9999 -RADZ FEW008/// SCT025/// BKN032/// //////TCU 18/16 Q1013 TEMPO VRB15G25KT 2500 TSRA BKN005 BKN015CB
13:30
V
17 °C 10 km+ 10.000 ft 230° 230° 4 kt METAR LFSL 141130Z AUTO 23004KT 150V310 9999 -RA FEW036/// OVC100/// //////CB 17/16 Q1012 TEMPO VRB15G25KT 2500 TSRA BKN005 BKN015CB
13:00
V
18 °C 9 km - Var Var 1 kt METAR LFSL 141100Z AUTO VRB01KT 9000 RA ///CB 18/16 Q1012 TEMPO VRB15G25KT 2500 TSRA BKN005 BKN015CB
12:30
V
18 °C 10 km+ 10.000 ft 170° 170° 3 kt METAR LFSL 141030Z AUTO 17003KT 110V250 9999 -TSRA FEW037/// OVC100/// //////CB 18/16 Q1012 TEMPO VRB15G25KT 2500 TSRA BKN005 BKN015CB
12:00
M
19 °C 10 km+ 2.500 ft 210° 210° 7 - 19 kt METAR LFSL 141000Z AUTO 21007G19KT 160V270 9999 -TSRA SCT006/// BKN025/// BKN054/// //////CB 19/17 Q1012 TEMPO 2500 TSRA BKN005 BKN015CB
11:30
V
20 °C 10 km+ 3.000 ft Var Var 2 kt METAR LFSL 140930Z AUTO VRB02KT 9999 -RA VCTS FEW011/// BKN030/// BKN068/// //////CB 20/18 Q1012 TEMPO VRB15G25KT 2500 TSRA BKN005 BKN015CB
11:00
V
20 °C 10 km+ 3.200 ft 040° 040° 3 kt METAR LFSL 140900Z AUTO 04003KT 360V070 9999 FEW008/// BKN032/// //////CB 20/18 Q1011 TEMPO VRB15G25KT 2500 TSRA BKN005 BKN015CB
10:30
I
19 °C 10 km+ 500 ft Var Var 2 kt METAR LFSL 140830Z AUTO VRB02KT 9999 BKN005/// BKN011/// BKN018/// //////CB 19/18 Q1011 TEMPO VRB15G25KT 2500 TSRA
10:00
M
19 °C 10 km+ 2.900 ft 280° 280° 3 kt METAR LFSL 140800Z AUTO 28003KT 180V320 9999 -RA FEW004/// BKN029/// OVC110/// ///CB 19/18 Q1012 TEMPO 4000 TSRA
09:30
V
19 °C 10 km+ - Var Var 2 kt METAR LFSL 140730Z AUTO VRB02KT 9999 -RA //////CB 19/18 Q1011 TEMPO 4000 TSRA
09:00
M
19 °C 7 km - 070° 070° 2 kt METAR LFSL 140700Z AUTO 07002KT 7000 TSRA ///CB 19/18 Q1011 TEMPO 4000 TSRA BKN005 BKN020CB
08:30
V
19 °C 9 km 8.000 ft Var Var 3 kt METAR LFSL 140630Z AUTO VRB03KT 9000 -RA FEW032/// BKN080/// BKN100/// //////CB 19/18 Q1011 TEMPO 4000 TSRA BKN005 BKN020CB
08:00
V
20 °C 10 km+ - 100° 100° 5 kt METAR LFSL 140600Z AUTO 10005KT 060V180 9999 TS //////CB 20/18 Q1010 TEMPO 3000 TSRA BKN005 BKN020CB
07:30
V
20 °C 10 km+ - 360° 360° 4 kt METAR LFSL 140530Z AUTO 36004KT 330V060 9999 -RA VCTS ///CB 20/18 Q1010 TEMPO 3000 TSRA BKN005 BKN020CB
07:00
V
20 °C 10 km+ - Var Var 1 kt METAR LFSL 140500Z AUTO VRB01KT 9999 //////CB 20/18 Q1011 TEMPO 4000 SHRA BKN012
06:30
V
20 °C 10 km+ - Var Var 3 kt METAR LFSL 140430Z AUTO VRB03KT 9999 ///TCU 20/18 Q1011 TEMPO 4000 SHRA BECMG FEW010 FEW080CB BKN120
06:00
I
20 °C 4,2 km 10.000 ft 350° 350° 6 kt METAR LFSL 140400Z AUTO 35006KT 330V040 9999 4200 +RA VCTS FEW012/// BKN100/// OVC120/// ///CB 20/18 Q1011 TEMPO BKN012 BECMG NSW
05:30
V
20 °C 10 km+ 8.000 ft 320° 320° 6 kt METAR LFSL 140330Z AUTO 32006KT 9999 TS FEW015/// SCT054/// BKN080/// ///CB 20/19 Q1012 TEMPO BKN012 BECMG NSW
05:00
V
20 °C 10 km+ - 330° 330° 5 kt METAR LFSL 140300Z AUTO 33005KT 290V010 9999 ///CB 20/19 Q1011 TEMPO TSRA BKN012
04:30
V
20 °C 10 km+ 11.000 ft 330° 330° 10 kt METAR LFSL 140230Z AUTO 33010KT 9999 FEW011 OVC110 20/19 Q1010
04:00
V
21 °C 10 km+ 12.000 ft 330° 330° 13 kt METAR LFSL 140200Z AUTO 33013KT 9999 FEW009 BKN120 OVC170 21/19 Q1010
03:30
V
21 °C 10 km+ 16.000 ft 340° 340° 14 kt METAR LFSL 140130Z AUTO 34014KT 9999 VCTS FEW010/// SCT078/// OVC160/// ///CB 21/19 Q1009
03:00
V
22 °C 10 km+ - 340° 340° 12 kt METAR LFSL 140100Z AUTO 34012KT 9999 ///CB 22/20 Q1009
02:30
V
22 °C 10 km+ - 330° 330° 14 kt METAR LFSL 140030Z AUTO 33014KT 300V360 9999 TS ///CB 22/20 Q1011
02:00
M
24 °C 6 km 6.400 ft 250° 250° 9 - 22 kt METAR LFSL 140000Z AUTO 25009G22KT 160V320 6000 -TSRA FEW025/// SCT036/// BKN064/// ///CB 24/20 Q1011
01:30
V
26 °C 10 km+ - Var Var 3 kt METAR LFSL 132330Z AUTO VRB03KT 9999 VCTS ///CB 26/19 Q1010
01:00
V
27 °C 10 km+ - 220° 220° 7 kt METAR LFSL 132300Z AUTO 22007KT 190V280 CAVOK 27/18 Q1010
00:30
V
28 °C 10 km+ - 260° 260° 6 kt METAR LFSL 132230Z AUTO 26006KT 200V310 CAVOK 28/17 Q1010
00:00
V
29 °C 10 km+ - Var Var 3 kt METAR LFSL 132200Z AUTO VRB03KT CAVOK 29/16 Q1010

13 de agosto de 2022

Hora Código Clima Temp. Visibilidade Tecto Vento METAR/SPECI
23:30
V
29 °C 10 km+ - Var Var 3 kt METAR LFSL 132130Z AUTO VRB03KT CAVOK 29/16 Q1010
23:00
V
27 °C 10 km+ - Var Var 1 kt METAR LFSL 132100Z AUTO VRB01KT CAVOK 27/15 Q1010
22:30
V
27 °C 10 km+ - 210° 210° 2 kt METAR LFSL 132030Z AUTO 21002KT CAVOK 27/15 Q1009
22:00
V
28 °C 10 km+ - Var 000° 0 kt METAR LFSL 132000Z AUTO 00000KT CAVOK 28/15 Q1010 TEMPO 24015G30KT 4000 TSRAGR SCT010 BKN070CB
21:30
V
30 °C 10 km+ - 290° 290° 2 kt METAR LFSL 131930Z AUTO 29002KT CAVOK 30/15 Q1009 TEMPO 24015G30KT 4000 TSRAGR SCT010 BKN070CB
21:00
V
32 °C 10 km+ - Var Var 2 kt METAR LFSL 131900Z AUTO VRB02KT CAVOK 32/15 Q1010 NOSIG
20:30
V
33 °C 10 km+ - 270° 270° 3 kt METAR LFSL 131830Z AUTO 27003KT 220V300 CAVOK 33/14 Q1010 NOSIG
20:00
V
34 °C 10 km+ - Var Var 2 kt METAR LFSL 131800Z AUTO VRB02KT CAVOK 34/15 Q1010 NOSIG
19:30
V
35 °C 10 km+ - 330° 330° 3 kt METAR LFSL 131730Z AUTO 33003KT 280V010 CAVOK 35/15 Q1009 NOSIG
19:00
V
35 °C 10 km+ - 310° 310° 4 kt METAR LFSL 131700Z AUTO 31004KT 270V350 CAVOK 35/15 Q1010 NOSIG
18:30
V
35 °C 10 km+ - 340° 340° 5 kt METAR LFSL 131630Z AUTO 34005KT 280V040 CAVOK 35/15 Q1010 NOSIG
18:00
V
36 °C 10 km+ - 340° 340° 5 kt METAR LFSL 131600Z AUTO 34005KT 290V050 CAVOK 36/15 Q1010 NOSIG
17:30
V
35 °C 10 km+ - Var Var 5 kt METAR LFSL 131530Z AUTO VRB05KT CAVOK 35/15 Q1010 NOSIG
17:00
V
36 °C 10 km+ - Var Var 3 kt METAR LFSL 131500Z AUTO VRB03KT CAVOK 36/15 Q1010 NOSIG
Dados mais antigos

Nós e terceiros acompanhamos seu comportamento na internet em nosso site com cookies. Se você continuar, nós assumimos que você concorda com nossa política de cookies. Saiba mais